Time;durP1;ratioP1;P1;durP2;ratioP2;P2;SDS_P1;SDS_P2;PMS_P1;PMS_P2;Temp;Humidity;BMP_temperature;BMP_pressure;BME280_temperature;BME280_humidity;BME280_pressure;Samples;Min_cycle;Max_cycle;Signal;HPM_P1;HPM_P2
2023/05/04 00:02:04;;;;;;;4.07;2.30;;;7.20;99.90;;;;;;5021338;28;20033;-76
2023/05/04 00:04:30;;;;;;;5.82;2.50;;;7.20;99.90;;;;;;5036991;28;20377;-82
2023/05/04 00:06:56;;;;;;;4.35;2.15;;;7.30;99.90;;;;;;5020122;28;20025;-77
2023/05/04 00:09:22;;;;;;;6.82;2.97;;;7.30;99.90;;;;;;5024312;28;20339;-77
2023/05/04 00:11:48;;;;;;;5.28;3.00;;;7.30;99.90;;;;;;5012257;28;20029;-77
2023/05/04 00:14:15;;;;;;;4.05;2.35;;;7.20;99.90;;;;;;5023794;28;20033;-76
2023/05/04 00:16:43;;;;;;;4.35;2.22;;;7.00;99.90;;;;;;5021455;28;20026;-77
2023/05/04 00:19:10;;;;;;;5.05;2.38;;;7.10;99.90;;;;;;5038245;28;20026;-77
2023/05/04 00:21:36;;;;;;;5.57;2.60;;;7.10;99.90;;;;;;5012599;28;20044;-77
2023/05/04 00:24:02;;;;;;;3.80;2.00;;;7.10;99.90;;;;;;5025056;28;20485;-78
2023/05/04 00:26:28;;;;;;;5.10;2.70;;;7.10;99.90;;;;;;5023087;28;20037;-81
2023/05/04 00:28:54;;;;;;;4.55;2.25;;;7.10;99.90;;;;;;5012328;28;20465;-76
2023/05/04 00:31:21;;;;;;;4.65;2.40;;;7.10;99.90;;;;;;5017043;28;20030;-78
2023/05/04 00:33:47;;;;;;;3.50;2.40;;;7.10;99.90;;;;;;5028902;28;20041;-77
2023/05/04 00:36:13;;;;;;;6.13;2.28;;;7.10;99.90;;;;;;5023384;28;20049;-76
2023/05/04 00:38:53;;;;;;;5.22;2.47;;;7.00;99.90;;;;;;5015905;28;20049;-77
2023/05/04 00:41:21;;;;;;;5.90;2.70;;;7.00;99.90;;;;;;5024766;28;20140;-76
2023/05/04 00:43:47;;;;;;;3.80;2.58;;;6.90;99.90;;;;;;5027447;28;20036;-77
2023/05/04 00:46:14;;;;;;;4.57;2.40;;;6.90;99.90;;;;;;5023706;28;20466;-76
2023/05/04 00:48:41;;;;;;;4.30;2.30;;;6.80;99.90;;;;;;5024165;28;20041;-77
2023/05/04 00:51:10;;;;;;;7.80;2.70;;;6.80;1.00;;;;;;5021537;28;20525;-82
2023/05/04 00:53:38;;;;;;;5.57;3.15;;;6.80;1.00;;;;;;5043626;28;20033;-77
2023/05/04 00:56:05;;;;;;;6.50;3.25;;;6.70;1.00;;;;;;5025032;28;20037;-77
2023/05/04 00:58:35;;;;;;;9.35;2.60;;;6.60;1.00;;;;;;5027627;28;20040;-81
2023/05/04 01:01:02;;;;;;;3.70;2.40;;;6.60;1.00;;;;;;5039256;28;20045;-76
2023/05/04 01:03:29;;;;;;;4.80;3.22;;;6.50;1.00;;;;;;5029991;28;20493;-76
2023/05/04 01:06:25;;;;;;;6.30;2.40;;;6.40;1.00;;;;;;5042450;28;20061;-77
2023/05/04 01:09:17;;;;;;;8.90;2.95;;;6.40;1.00;;;;;;5036848;28;20146;-76
2023/05/04 01:12:00;;;;;;;6.35;3.13;;;6.40;1.00;;;;;;5007700;28;20489;-77
2023/05/04 01:14:29;;;;;;;5.22;3.10;;;6.40;1.00;;;;;;5025196;28;20040;-78
2023/05/04 01:16:59;;;;;;;6.57;2.67;;;6.40;1.00;;;;;;5025809;28;20029;-76
2023/05/04 01:19:28;;;;;;;3.97;2.78;;;6.40;1.00;;;;;;5030530;28;20049;-75
2023/05/04 01:21:55;;;;;;;7.07;3.53;;;6.50;1.00;;;;;;5027146;28;20176;-75
2023/05/04 01:24:23;;;;;;;6.00;2.30;;;6.50;1.00;;;;;;5025025;28;20038;-75
2023/05/04 01:26:54;;;;;;;6.13;2.88;;;6.50;1.00;;;;;;5025465;28;20025;-76
2023/05/04 01:29:32;;;;;;;5.50;3.03;;;6.30;1.00;;;;;;5037070;28;20068;-76
2023/05/04 01:31:59;;;;;;;6.85;2.58;;;6.20;1.00;;;;;;5028557;28;20038;-76
2023/05/04 01:34:25;;;;;;;8.10;3.10;;;6.10;1.00;;;;;;5036012;28;20040;-76
2023/05/04 01:36:54;;;;;;;6.88;3.53;;;5.90;1.00;;;;;;5028999;28;20034;-76
2023/05/04 01:39:20;;;;;;;6.25;3.05;;;5.90;1.00;;;;;;5032021;28;20034;-76
2023/05/04 01:41:49;;;;;;;7.57;3.35;;;5.90;1.00;;;;;;5028078;28;20064;-76
2023/05/04 01:44:16;;;;;;;7.25;3.70;;;5.90;1.00;;;;;;5029554;28;20497;-76
2023/05/04 01:46:42;;;;;;;7.97;4.15;;;5.90;1.00;;;;;;5027043;28;20473;-76
2023/05/04 01:49:08;;;;;;;7.85;3.45;;;6.00;1.00;;;;;;5042329;28;20041;-76
2023/05/04 01:51:34;;;;;;;8.23;4.30;;;6.00;1.00;;;;;;5030734;28;20056;-78
2023/05/04 01:54:00;;;;;;;8.20;3.83;;;6.00;1.00;;;;;;5037682;28;20046;-76
2023/05/04 01:56:26;;;;;;;6.97;3.70;;;5.90;1.00;;;;;;5043112;28;20037;-76
2023/05/04 01:58:59;;;;;;;6.78;3.15;;;5.90;1.00;;;;;;5038413;28;20038;-76
2023/05/04 02:01:25;;;;;;;5.90;3.42;;;5.80;1.00;;;;;;5043275;28;20036;-76
2023/05/04 02:03:51;;;;;;;5.78;3.22;;;5.70;1.00;;;;;;5026553;28;20044;-76
2023/05/04 02:06:17;;;;;;;8.20;4.20;;;5.70;1.00;;;;;;5028340;28;20048;-77
2023/05/04 02:08:44;;;;;;;4.88;3.30;;;5.80;1.00;;;;;;5041474;28;20034;-77
2023/05/04 02:11:10;;;;;;;5.18;3.05;;;5.90;1.00;;;;;;5024214;28;20462;-75
2023/05/04 02:13:36;;;;;;;6.32;3.30;;;5.90;1.00;;;;;;5030528;28;20393;-81
2023/05/04 02:16:03;;;;;;;7.00;3.67;;;5.90;1.00;;;;;;5027990;28;20052;-76
2023/05/04 02:18:29;;;;;;;15.13;5.10;;;5.80;1.00;;;;;;5021908;28;20025;-75
2023/05/04 02:20:55;;;;;;;5.53;3.15;;;5.80;1.00;;;;;;5038520;28;20030;-76
2023/05/04 02:23:21;;;;;;;5.85;3.45;;;5.80;1.00;;;;;;5024890;28;20348;-76
2023/05/04 02:25:47;;;;;;;9.52;4.30;;;5.70;1.00;;;;;;5020848;28;20037;-76
2023/05/04 02:28:13;;;;;;;6.18;3.65;;;5.70;1.00;;;;;;5024407;28;20037;-76
2023/05/04 02:30:41;;;;;;;7.43;3.92;;;5.70;1.00;;;;;;5027187;28;20037;-82
2023/05/04 02:33:07;;;;;;;5.72;4.05;;;5.70;1.00;;;;;;5022682;28;20355;-76
2023/05/04 02:35:33;;;;;;;8.23;4.50;;;5.60;1.00;;;;;;5024699;28;20041;-77
2023/05/04 02:37:59;;;;;;;7.35;4.40;;;5.60;1.00;;;;;;5024702;28;20026;-76
2023/05/04 02:40:26;;;;;;;7.40;4.07;;;5.50;1.00;;;;;;5026675;28;20033;-76
2023/05/04 02:42:52;;;;;;;9.13;5.10;;;5.50;1.00;;;;;;5028773;28;20072;-76
2023/05/04 02:45:20;;;;;;;5.35;3.55;;;5.40;1.00;;;;;;5027017;28;20029;-75
2023/05/04 02:47:46;;;;;;;8.07;4.18;;;5.40;1.00;;;;;;5027727;28;20033;-77
2023/05/04 02:50:13;;;;;;;10.60;4.32;;;5.40;1.00;;;;;;5043067;28;20512;-75
2023/05/04 02:52:39;;;;;;;12.23;5.45;;;5.30;1.00;;;;;;5023383;28;20029;-81
2023/05/04 02:55:05;;;;;;;7.60;5.22;;;5.20;1.00;;;;;;5025670;28;20112;-78
2023/05/04 02:57:31;;;;;;;7.57;3.97;;;5.20;1.00;;;;;;5026802;28;20040;-77
2023/05/04 02:59:58;;;;;;;7.43;4.90;;;5.20;1.00;;;;;;5029353;28;20029;-76
2023/05/04 03:02:24;;;;;;;8.63;4.28;;;5.20;1.00;;;;;;5022365;28;20029;-76
2023/05/04 03:04:50;;;;;;;9.60;4.35;;;5.20;1.00;;;;;;5022725;28;20474;-77
2023/05/04 03:07:16;;;;;;;7.43;4.40;;;5.20;1.00;;;;;;5025228;28;20557;-76
2023/05/04 03:09:42;;;;;;;6.63;4.50;;;5.20;1.00;;;;;;5020059;28;20037;-76
2023/05/04 03:12:08;;;;;;;9.30;5.28;;;5.30;1.00;;;;;;5024011;28;20021;-76
2023/05/04 03:14:35;;;;;;;7.35;3.50;;;5.40;1.00;;;;;;5023435;28;20041;-77
2023/05/04 03:17:01;;;;;;;6.55;4.10;;;5.20;1.00;;;;;;5024668;28;20029;-77
2023/05/04 03:19:27;;;;;;;5.95;4.00;;;5.20;1.00;;;;;;5027503;28;20026;-76
2023/05/04 03:21:54;;;;;;;9.77;4.20;;;5.20;1.00;;;;;;5028041;28;20447;-77
2023/05/04 03:24:20;;;;;;;6.20;4.05;;;5.30;1.00;;;;;;5027898;28;20390;-76
2023/05/04 03:26:47;;;;;;;6.57;3.97;;;5.30;1.00;;;;;;5022502;28;20030;-77
2023/05/04 03:29:13;;;;;;;8.98;3.65;;;5.20;1.00;;;;;;5036806;28;20029;-76
2023/05/04 03:31:40;;;;;;;7.07;3.95;;;5.20;1.00;;;;;;5044088;28;20041;-80
2023/05/04 03:34:08;;;;;;;6.80;3.72;;;5.20;1.00;;;;;;5035591;28;20041;-78
2023/05/04 03:36:35;;;;;;;6.47;4.20;;;5.10;1.00;;;;;;5038464;28;20041;-76
2023/05/04 03:39:01;;;;;;;9.57;4.55;;;5.10;1.00;;;;;;5022414;28;20046;-77
2023/05/04 03:41:27;;;;;;;7.65;4.28;;;5.20;1.00;;;;;;5039029;28;20034;-76
2023/05/04 03:43:54;;;;;;;6.32;3.97;;;5.20;1.00;;;;;;5037480;28;20356;-76
2023/05/04 03:46:20;;;;;;;8.00;4.00;;;5.20;1.00;;;;;;5037582;28;20040;-76
2023/05/04 03:48:46;;;;;;;7.80;4.25;;;5.10;1.00;;;;;;5040073;28;20045;-77
2023/05/04 03:51:15;;;;;;;6.18;4.53;;;5.10;1.00;;;;;;5026223;28;20037;-77
2023/05/04 03:53:41;;;;;;;10.13;3.88;;;5.10;1.00;;;;;;5034326;28;20494;-80
2023/05/04 03:56:08;;;;;;;6.55;3.95;;;5.10;1.00;;;;;;5031757;28;20045;-76
2023/05/04 03:58:35;;;;;;;8.10;4.63;;;5.10;1.00;;;;;;5029424;28;20032;-77
2023/05/04 04:01:03;;;;;;;8.13;4.45;;;5.10;1.00;;;;;;5022611;28;20222;-77
2023/05/04 04:03:30;;;;;;;8.30;4.55;;;5.10;1.00;;;;;;5027902;28;20041;-77
2023/05/04 04:05:56;;;;;;;7.75;4.82;;;5.10;1.00;;;;;;5037749;28;20041;-77
2023/05/04 04:08:27;;;;;;;12.85;5.65;;;5.20;1.00;;;;;;5028037;28;20400;-77
2023/05/04 04:10:54;;;;;;;12.05;5.28;;;5.30;1.00;;;;;;5026716;28;20040;-76
2023/05/04 04:13:20;;;;;;;9.48;5.50;;;5.30;1.00;;;;;;5035771;28;20371;-76
2023/05/04 04:15:46;;;;;;;12.43;4.90;;;5.30;1.00;;;;;;5019569;28;20029;-81
2023/05/04 04:18:12;;;;;;;7.20;3.95;;;5.40;1.00;;;;;;5018825;28;20478;-80
2023/05/04 04:20:38;;;;;;;10.85;5.18;;;5.40;1.00;;;;;;5020310;28;20371;-80
2023/05/04 04:23:05;;;;;;;10.15;5.65;;;5.50;1.00;;;;;;5030406;28;20038;-81
2023/05/04 04:25:31;;;;;;;6.40;3.90;;;5.50;1.00;;;;;;5047059;28;20056;-80
2023/05/04 04:27:57;;;;;;;7.30;4.22;;;5.60;1.00;;;;;;5028622;28;20018;-80
2023/05/04 04:30:23;;;;;;;8.52;4.95;;;5.70;1.00;;;;;;5030532;28;20041;-81
2023/05/04 04:32:50;;;;;;;8.98;4.93;;;5.80;1.00;;;;;;5032479;28;20029;-82
2023/05/04 04:35:16;;;;;;;9.57;5.18;;;5.90;1.00;;;;;;5034646;28;20045;-81
2023/05/04 04:37:42;;;;;;;9.57;4.75;;;5.90;1.00;;;;;;5032864;28;20021;-80
2023/05/04 04:40:09;;;;;;;6.25;5.35;;;6.00;1.00;;;;;;5032469;28;20057;-81
2023/05/04 04:42:35;;;;;;;8.57;5.05;;;6.10;1.00;;;;;;5028512;28;20060;-81
2023/05/04 04:45:04;;;;;;;8.52;4.90;;;6.30;1.00;;;;;;5039628;28;20036;-81
2023/05/04 04:47:31;;;;;;;7.35;5.07;;;6.40;1.00;;;;;;5028254;28;20029;-79
2023/05/04 04:49:57;;;;;;;7.25;5.00;;;6.60;1.00;;;;;;5042965;28;20044;-81
2023/05/04 04:52:24;;;;;;;6.65;4.10;;;6.90;1.00;;;;;;5043975;28;20054;-80
2023/05/04 04:54:51;;;;;;;9.45;5.20;;;7.00;1.00;;;;;;5023492;28;20390;-82
2023/05/04 04:57:17;;;;;;;9.90;4.88;;;7.30;1.00;;;;;;5045020;28;20025;-81
2023/05/04 04:59:46;;;;;;;7.35;4.78;;;7.60;1.00;;;;;;5030945;28;20025;-80
2023/05/04 05:02:12;;;;;;;8.75;5.35;;;7.90;1.00;;;;;;5032977;28;20478;-81
2023/05/04 05:04:41;;;;;;;7.40;5.05;;;8.10;99.90;;;;;;5028796;28;20409;-82
2023/05/04 05:07:07;;;;;;;12.32;9.43;;;8.30;99.90;;;;;;5030653;28;20034;-82
2023/05/04 05:09:34;;;;;;;8.82;6.35;;;8.50;99.90;;;;;;5025537;28;20358;-82
2023/05/04 05:12:00;;;;;;;7.57;5.18;;;8.50;99.90;;;;;;5029177;28;20034;-82
2023/05/04 05:14:26;;;;;;;7.45;4.25;;;8.90;99.90;;;;;;5022926;28;20036;-82
2023/05/04 05:16:53;;;;;;;7.32;4.13;;;9.20;99.90;;;;;;5025069;28;20029;-82
2023/05/04 05:19:19;;;;;;;10.18;4.13;;;9.30;99.90;;;;;;5027830;28;20397;-79
2023/05/04 05:21:46;;;;;;;8.25;4.60;;;9.40;99.90;;;;;;5027152;28;20036;-79
2023/05/04 05:24:12;;;;;;;5.97;3.55;;;9.60;99.90;;;;;;5025741;28;20049;-81
2023/05/04 05:26:38;;;;;;;11.18;4.07;;;9.50;99.90;;;;;;5029400;28;20041;-82
2023/05/04 05:29:04;;;;;;;5.43;3.55;;;9.50;99.90;;;;;;5033102;28;20048;-80
2023/05/04 05:31:31;;;;;;;7.53;3.70;;;9.60;99.90;;;;;;5023746;28;20022;-81
2023/05/04 05:33:57;;;;;;;5.47;3.65;;;9.90;99.90;;;;;;5021827;28;20373;-82
2023/05/04 05:36:24;;;;;;;4.40;3.10;;;10.30;99.90;;;;;;5032056;28;20033;-82
2023/05/04 05:38:51;;;;;;;7.32;3.83;;;10.30;99.90;;;;;;5026225;28;20029;-82
2023/05/04 05:41:17;;;;;;;5.47;3.63;;;10.20;99.90;;;;;;5039583;28;20033;-82
2023/05/04 05:43:43;;;;;;;6.13;3.80;;;10.30;99.90;;;;;;5006246;28;20049;-82
2023/05/04 05:46:11;;;;;;;6.40;3.72;;;10.40;99.90;;;;;;5037271;28;20048;-82
2023/05/04 05:48:37;;;;;;;6.25;3.65;;;10.70;99.90;;;;;;5026636;28;20026;-81
2023/05/04 05:51:03;;;;;;;6.25;3.65;;;11.40;99.90;;;;;;5042737;28;20378;-81
2023/05/04 05:53:29;;;;;;;6.03;4.15;;;11.70;99.90;;;;;;5027994;28;20052;-83
2023/05/04 05:55:55;;;;;;;7.78;3.10;;;12.20;99.90;;;;;;5032448;28;20057;-82
2023/05/04 05:58:22;;;;;;;4.22;3.03;;;12.50;96.90;;;;;;5010507;28;20355;-83
2023/05/04 06:00:48;;;;;;;4.97;3.08;;;12.10;97.40;;;;;;5047241;28;20033;-88
2023/05/04 06:03:14;;;;;;;7.25;3.17;;;12.00;99.90;;;;;;5026991;28;20029;-81
2023/05/04 06:05:40;;;;;;;5.85;3.38;;;12.20;99.00;;;;;;5023359;28;20037;-81
2023/05/04 06:08:06;;;;;;;7.47;3.97;;;12.10;98.70;;;;;;5027908;28;20038;-81
2023/05/04 06:10:33;;;;;;;5.50;3.17;;;12.30;99.90;;;;;;5033110;28;20505;-81
2023/05/04 06:13:00;;;;;;;6.35;3.85;;;12.80;86.90;;;;;;5026929;28;20021;-82
2023/05/04 06:15:26;;;;;;;3.58;2.47;;;13.50;41.70;;;;;;5029951;28;20041;-82
2023/05/04 06:17:52;;;;;;;6.70;3.60;;;14.00;20.30;;;;;;5032752;28;20037;-82
2023/05/04 06:20:18;;;;;;;4.95;2.90;;;14.30;8.40;;;;;;5031413;28;20029;-81
2023/05/04 06:22:45;;;;;;;3.88;2.50;;;14.40;10.70;;;;;;5024421;28;20038;-82
2023/05/04 06:25:12;;;;;;;6.65;3.92;;;14.40;1.00;;;;;;5013416;28;20050;-81
2023/05/04 06:27:38;;;;;;;5.28;3.13;;;15.00;1.00;;;;;;5039528;28;20045;-81
2023/05/04 06:30:05;;;;;;;6.25;3.92;;;15.20;1.00;;;;;;5040023;28;20033;-82
2023/05/04 06:32:31;;;;;;;4.95;3.08;;;15.40;1.00;;;;;;5027107;28;20135;-82
2023/05/04 06:34:58;;;;;;;5.35;2.83;;;15.80;1.00;;;;;;5037650;28;20030;-81
2023/05/04 06:37:25;;;;;;;7.53;2.63;;;15.90;1.00;;;;;;5020248;28;20038;-82
2023/05/04 06:39:51;;;;;;;4.63;2.92;;;15.70;1.00;;;;;;5041751;28;20033;-83
2023/05/04 06:42:20;;;;;;;5.93;3.00;;;15.80;1.00;;;;;;5028380;28;20360;-82
2023/05/04 06:44:48;;;;;;;3.35;2.47;;;15.90;1.00;;;;;;5041904;28;20044;-83
2023/05/04 06:47:18;;;;;;;4.22;2.25;;;15.70;1.00;;;;;;5017509;28;20356;-82
2023/05/04 06:49:44;;;;;;;5.40;2.47;;;16.10;1.00;;;;;;5041879;28;20033;-83
2023/05/04 06:52:10;;;;;;;4.18;1.92;;;16.60;1.00;;;;;;5029598;28;20362;-82
2023/05/04 06:54:36;;;;;;;8.93;2.65;;;18.10;1.00;;;;;;5040960;28;20060;-82
2023/05/04 06:57:03;;;;;;;3.00;1.85;;;18.40;1.00;;;;;;5012923;28;20064;-82
2023/05/04 06:59:29;;;;;;;2.97;2.15;;;18.80;1.00;;;;;;5031890;28;20037;-83
2023/05/04 07:01:55;;;;;;;4.82;3.03;;;19.60;1.00;;;;;;5010382;28;20471;-82
2023/05/04 07:04:22;;;;;;;2.60;1.70;;;19.00;1.00;;;;;;5025188;28;20042;-83
2023/05/04 07:06:51;;;;;;;3.20;1.65;;;18.40;1.00;;;;;;5027263;28;20038;-83
2023/05/04 07:09:19;;;;;;;4.15;1.90;;;18.40;1.00;;;;;;5012243;28;20030;-82
2023/05/04 07:11:45;;;;;;;3.65;2.38;;;17.50;1.00;;;;;;5023580;28;20033;-82
2023/05/04 07:14:11;;;;;;;3.72;2.13;;;17.50;1.00;;;;;;5026806;28;20026;-84
2023/05/04 07:16:37;;;;;;;3.90;2.13;;;17.20;1.00;;;;;;5026907;28;20366;-81
2023/05/04 07:19:03;;;;;;;7.85;2.80;;;18.30;1.00;;;;;;5022743;28;20033;-82
2023/05/04 07:21:30;;;;;;;5.95;2.42;;;19.00;1.00;;;;;;5031242;28;20044;-80
2023/05/04 07:23:56;;;;;;;4.15;2.30;;;18.40;1.00;;;;;;5033470;28;20049;-83
2023/05/04 07:26:22;;;;;;;4.22;2.80;;;18.40;1.00;;;;;;5020127;28;20033;-81
2023/05/04 07:28:49;;;;;;;3.90;2.20;;;19.20;1.00;;;;;;5033044;28;20463;-81
2023/05/04 07:31:15;;;;;;;4.72;2.33;;;19.00;1.00;;;;;;5022310;28;20044;-82
2023/05/04 07:33:42;;;;;;;4.25;2.53;;;18.90;1.00;;;;;;5017373;28;20026;-84
2023/05/04 07:36:08;;;;;;;3.65;2.42;;;19.40;1.00;;;;;;5023233;28;20374;-85
2023/05/04 07:38:35;;;;;;;4.03;3.15;;;19.50;1.00;;;;;;5030134;28;20458;-84
2023/05/04 07:41:01;;;;;;;6.55;3.15;;;19.60;1.00;;;;;;5035693;28;20378;-84
2023/05/04 07:43:27;;;;;;;4.50;3.03;;;19.60;1.00;;;;;;5039914;28;20041;-82
2023/05/04 07:45:54;;;;;;;5.72;3.47;;;19.80;1.00;;;;;;5030553;28;20029;-83
2023/05/04 07:48:20;;;;;;;4.20;3.00;;;20.20;1.00;;;;;;5027190;28;20064;-81
2023/05/04 07:50:46;;;;;;;5.35;3.13;;;20.30;1.00;;;;;;5023281;28;20045;-81
2023/05/04 07:53:12;;;;;;;5.03;3.33;;;19.70;1.00;;;;;;5022243;28;20040;-82
2023/05/04 07:55:38;;;;;;;6.40;3.92;;;19.50;1.00;;;;;;5018177;28;20026;-85
2023/05/04 07:58:05;;;;;;;5.40;3.35;;;20.60;1.00;;;;;;5029146;28;20033;-84
2023/05/04 08:00:31;;;;;;;5.05;3.47;;;20.70;1.00;;;;;;5023512;28;20060;-85
2023/05/04 08:02:57;;;;;;;5.88;3.22;;;20.70;1.00;;;;;;5026121;28;20022;-84
2023/05/04 08:05:24;;;;;;;4.25;3.53;;;21.10;1.00;;;;;;5020089;28;20041;-84
2023/05/04 08:07:50;;;;;;;4.50;3.15;;;21.90;1.00;;;;;;5043464;28;20041;-85
2023/05/04 08:10:16;;;;;;;5.28;4.05;;;21.90;1.00;;;;;;5046166;28;20041;-84
2023/05/04 08:12:42;;;;;;;5.05;4.35;;;22.00;1.00;;;;;;5018133;28;20045;-85
2023/05/04 08:15:09;;;;;;;5.35;3.53;;;22.10;1.00;;;;;;5022074;28;20042;-85
2023/05/04 08:17:38;;;;;;;5.15;3.47;;;22.10;1.00;;;;;;5061625;28;20038;-84
2023/05/04 08:20:06;;;;;;;5.72;3.90;;;22.40;1.00;;;;;;5055352;28;20026;-86
2023/05/04 08:22:33;;;;;;;5.28;3.67;;;22.10;1.00;;;;;;5037528;28;20049;-83
2023/05/04 08:24:59;;;;;;;5.32;3.35;;;22.10;1.00;;;;;;5045422;28;20026;-84
2023/05/04 08:27:25;;;;;;;5.97;3.40;;;22.00;1.00;;;;;;5050073;28;20039;-91
2023/05/04 08:29:51;;;;;;;5.25;3.58;;;21.90;1.00;;;;;;5044774;28;20029;-84
2023/05/04 08:32:18;;;;;;;9.13;3.75;;;22.40;1.00;;;;;;5049072;28;20044;-87
2023/05/04 08:34:44;;;;;;;6.78;3.55;;;22.50;1.00;;;;;;5029382;28;20383;-84
2023/05/04 08:37:10;;;;;;;8.52;4.07;;;21.90;1.00;;;;;;5042764;28;20401;-86
2023/05/04 08:39:36;;;;;;;4.65;3.78;;;22.00;1.00;;;;;;5044144;28;20347;-84
2023/05/04 08:42:03;;;;;;;4.53;3.10;;;22.00;1.00;;;;;;5021106;28;20045;-83
2023/05/04 08:44:30;;;;;;;5.70;3.42;;;21.60;1.00;;;;;;5021936;28;20340;-84
2023/05/04 08:46:56;;;;;;;6.80;3.78;;;21.70;1.00;;;;;;5025730;28;20026;-86
2023/05/04 08:49:23;;;;;;;6.20;4.15;;;22.30;1.00;;;;;;5038336;28;20038;-86
2023/05/04 08:51:50;;;;;;;6.10;4.20;;;22.60;1.00;;;;;;5015626;28;20034;-85
2023/05/04 08:54:17;;;;;;;4.93;3.97;;;22.80;1.00;;;;;;5035391;28;20345;-86
2023/05/04 08:56:45;;;;;;;4.70;3.60;;;23.30;1.00;;;;;;5016017;28;20375;-85
2023/05/04 08:59:22;;;;;;;6.65;4.05;;;23.40;1.00;;;;;;5029758;28;20041;-87
2023/05/04 09:01:53;;;;;;;8.30;4.30;;;23.30;1.00;;;;;;5006136;28;20041;-84
2023/05/04 09:04:19;;;;;;;6.95;4.07;;;23.10;1.00;;;;;;5039701;28;20042;-82
2023/05/04 09:06:48;;;;;;;5.50;3.30;;;22.60;1.00;;;;;;5017412;28;20486;-86
2023/05/04 09:09:15;;;;;;;6.57;3.97;;;22.20;1.00;;;;;;5037967;28;20289;-85
2023/05/04 09:11:42;;;;;;;4.70;4.00;;;22.20;1.00;;;;;;5022221;28;20489;-84
2023/05/04 09:14:08;;;;;;;5.65;3.70;;;22.70;1.00;;;;;;5026942;28;20025;-86
2023/05/04 09:16:35;;;;;;;6.75;3.45;;;22.50;1.00;;;;;;5006945;28;20037;-85
2023/05/04 09:19:04;;;;;;;5.93;3.63;;;22.80;1.00;;;;;;5024184;28;20429;-86
2023/05/04 09:21:30;;;;;;;4.35;2.80;;;22.70;1.00;;;;;;5038999;28;20036;-85
2023/05/04 09:23:57;;;;;;;7.90;2.78;;;23.20;1.00;;;;;;5027788;28;20045;-89
2023/05/04 09:26:30;;;;;;;3.70;2.60;;;23.10;1.00;;;;;;5034027;28;20056;-85
2023/05/04 09:29:08;;;;;;;5.25;2.53;;;23.30;1.00;;;;;;5023769;28;20030;-88
2023/05/04 09:31:48;;;;;;;2.88;2.30;;;23.20;1.00;;;;;;5034295;28;20451;-86
2023/05/04 09:34:14;;;;;;;4.07;2.30;;;23.20;1.00;;;;;;5031873;28;20331;-87
2023/05/04 09:36:41;;;;;;;6.40;2.45;;;23.20;1.00;;;;;;5043433;28;20613;-86
2023/05/04 09:39:11;;;;;;;2.63;2.25;;;23.10;1.00;;;;;;5038820;28;20451;-84
2023/05/04 09:41:37;;;;;;;6.38;2.35;;;23.00;1.00;;;;;;5047721;28;20042;-84
2023/05/04 09:44:04;;;;;;;3.22;2.15;;;22.60;1.00;;;;;;5039041;28;20046;-88
2023/05/04 09:46:30;;;;;;;1.98;1.50;;;22.80;1.00;;;;;;5042029;28;20034;-85
2023/05/04 09:48:56;;;;;;;3.78;2.00;;;23.10;1.00;;;;;;5033710;28;20136;-88
2023/05/04 09:51:25;;;;;;;3.13;1.92;;;22.90;1.00;;;;;;5025530;28;20446;-88
2023/05/04 09:53:52;;;;;;;2.95;2.40;;;23.60;1.00;;;;;;5039446;28;20042;-83
2023/05/04 09:56:40;;;;;;;4.88;2.17;;;23.60;1.00;;;;;;5026361;28;20033;-87
2023/05/04 09:59:08;;;;;;;3.63;2.10;;;23.60;1.00;;;;;;5044453;28;20042;-85
2023/05/04 10:01:35;;;;;;;3.30;2.30;;;23.90;1.00;;;;;;5027318;28;20049;-90
2023/05/04 10:04:02;;;;;;;3.47;1.92;;;23.50;1.00;;;;;;5036136;28;20041;-86
2023/05/04 10:06:29;;;;;;;3.53;1.92;;;23.70;1.00;;;;;;5027689;28;20049;-89
2023/05/04 10:08:57;;;;;;;4.25;2.08;;;23.60;1.00;;;;;;5027295;28;20022;-88
2023/05/04 10:11:25;;;;;;;3.80;2.05;;;23.90;1.00;;;;;;5025074;28;20025;-88
2023/05/04 10:13:54;;;;;;;3.00;2.15;;;23.00;1.00;;;;;;5039400;28;20034;-90
2023/05/04 10:16:54;;;;;;;3.70;1.83;;;22.50;1.00;;;;;;5030912;28;20036;-88
2023/05/04 10:19:32;;;;;;;4.00;1.73;;;22.80;1.00;;;;;;5046440;28;20040;-89
2023/05/04 10:22:19;;;;;;;2.47;1.77;;;23.30;1.00;;;;;;5026027;28;20025;-89
2023/05/04 10:25:07;;;;;;;7.78;2.38;;;22.40;1.00;;;;;;5027587;28;20038;-89
2023/05/04 10:27:55;;;;;;;4.72;2.80;;;22.60;1.00;;;;;;5028054;28;20517;-89
2023/05/04 10:30:22;;;;;;;2.90;2.20;;;21.80;1.00;;;;;;5006572;28;20041;-90
2023/05/04 10:32:56;;;;;;;3.35;1.83;;;22.20;1.00;;;;;;5044727;28;20374;-89
2023/05/04 10:35:23;;;;;;;3.33;1.67;;;22.40;1.00;;;;;;5026998;28;20147;-86
2023/05/04 10:37:53;;;;;;;3.03;2.08;;;22.60;1.00;;;;;;5050976;28;20049;-90
2023/05/04 10:40:38;;;;;;;3.83;2.28;;;22.50;1.00;;;;;;5032834;28;20052;-83
2023/05/04 10:43:10;;;;;;;2.67;1.92;;;22.20;1.00;;;;;;5021089;28;20049;-90
2023/05/04 10:45:38;;;;;;;3.60;2.20;;;22.50;1.00;;;;;;5022357;28;20567;-87
2023/05/04 10:48:06;;;;;;;3.25;1.90;;;22.70;1.00;;;;;;5032837;28;20029;-86
2023/05/04 10:50:42;;;;;;;3.13;2.22;;;22.90;1.00;;;;;;5048267;28;20458;-87
2023/05/04 10:53:09;;;;;;;3.10;2.13;;;23.00;1.00;;;;;;5022185;28;20374;-86
2023/05/04 10:55:54;;;;;;;4.13;2.22;;;23.00;1.00;;;;;;5038656;28;20215;-87
2023/05/04 10:58:27;;;;;;;3.40;2.13;;;23.10;1.00;;;;;;5035058;28;20034;-87
2023/05/04 11:00:53;;;;;;;5.03;2.63;;;23.30;1.00;;;;;;5033502;28;20455;-85
2023/05/04 11:03:21;;;;;;;4.47;2.83;;;22.60;1.00;;;;;;5025169;28;20041;-87
2023/05/04 11:05:53;;;;;;;3.55;2.47;;;22.70;1.00;;;;;;5028393;28;20339;-89
2023/05/04 11:08:22;;;;;;;5.82;2.97;;;22.90;1.00;;;;;;5023417;28;20698;-88
2023/05/04 11:11:03;;;;;;;3.77;2.27;;;22.80;1.00;;;;;;5007530;28;20037;-88
2023/05/04 11:13:30;;;;;;;;;;;22.90;1.00;;;;;;5021218;28;20287;-90
2023/05/04 11:15:57;;;;;;;4.13;2.47;;;22.50;1.00;;;;;;5041902;28;20265;-88
2023/05/04 11:18:26;;;;;;;3.55;2.60;;;22.60;1.00;;;;;;5039736;28;20046;-87
2023/05/04 11:20:54;;;;;;;4.93;3.17;;;22.80;1.00;;;;;;5022203;28;20017;-89
2023/05/04 11:23:21;;;;;;;3.38;2.83;;;23.00;1.00;;;;;;5039064;28;20038;-89
2023/05/04 11:25:48;;;;;;;3.30;2.45;;;23.20;1.00;;;;;;5040384;28;20056;-86
2023/05/04 11:28:14;;;;;;;4.72;2.30;;;22.80;1.00;;;;;;5044431;28;20044;-89
2023/05/04 11:30:42;;;;;;;3.70;2.67;;;22.80;1.00;;;;;;5035053;28;20033;-84
2023/05/04 11:33:14;;;;;;;2.75;2.15;;;23.00;1.00;;;;;;5026845;28;20032;-88
2023/05/04 11:35:44;;;;;;;3.20;2.38;;;22.80;1.00;;;;;;5039059;28;20118;-88
2023/05/04 11:38:17;;;;;;;3.95;2.22;;;23.00;1.00;;;;;;5038132;28;20049;-88
2023/05/04 11:40:46;;;;;;;4.07;2.65;;;23.20;1.00;;;;;;5027225;28;20036;-89
2023/05/04 11:43:13;;;;;;;7.47;3.08;;;23.40;1.00;;;;;;5036196;28;20046;-87
2023/05/04 11:45:41;;;;;;;4.72;2.28;;;23.50;1.00;;;;;;5024850;28;20037;-91
2023/05/04 11:48:08;;;;;;;3.05;2.63;;;23.00;1.00;;;;;;5021617;28;20048;-82
2023/05/04 11:50:35;;;;;;;3.58;2.90;;;22.80;1.00;;;;;;5025710;28;20043;-87
2023/05/04 11:53:08;;;;;;;7.90;2.95;;;22.60;1.00;;;;;;5030873;28;20052;-85
2023/05/04 11:55:37;;;;;;;4.18;2.47;;;22.90;1.00;;;;;;5033316;28;20044;-86
2023/05/04 11:58:06;;;;;;;4.65;2.53;;;23.10;1.00;;;;;;5017221;28;20034;-88
2023/05/04 12:00:45;;;;;;;3.10;2.60;;;23.20;1.00;;;;;;5027796;28;20060;-84
2023/05/04 12:03:13;;;;;;;4.18;2.47;;;23.20;1.00;;;;;;5021587;28;20037;-84
2023/05/04 12:05:47;;;;;;;5.22;2.80;;;22.60;1.00;;;;;;5028309;28;20037;-85
2023/05/04 12:08:25;;;;;;;5.70;2.90;;;22.80;1.00;;;;;;5028399;28;20038;-87
2023/05/04 12:11:06;;;;;;;6.47;3.00;;;23.20;1.00;;;;;;5030797;28;20033;-88
2023/05/04 12:13:33;;;;;;;3.97;3.05;;;23.10;1.00;;;;;;5023254;28;20044;-85
2023/05/04 12:16:14;;;;;;;3.95;3.05;;;22.80;1.00;;;;;;5030451;28;20121;-89
2023/05/04 12:18:40;;;;;;;4.47;2.67;;;22.60;1.00;;;;;;5030762;28;20045;-87
2023/05/04 12:21:26;;;;;;;5.72;3.05;;;22.80;1.00;;;;;;5032192;28;20354;-82
2023/05/04 12:23:55;;;;;;;4.57;3.03;;;23.00;1.00;;;;;;5027246;28;20065;-84
2023/05/04 12:26:21;;;;;;;4.93;2.63;;;22.70;1.00;;;;;;5032834;28;20382;-87
2023/05/04 12:28:47;;;;;;;3.75;2.67;;;23.00;1.00;;;;;;5024353;28;20024;-87
2023/05/04 12:31:14;;;;;;;5.13;2.92;;;22.80;1.00;;;;;;5028505;28;20041;-83
2023/05/04 12:33:40;;;;;;;3.20;2.00;;;23.10;1.00;;;;;;5019484;28;20026;-88
2023/05/04 12:36:07;;;;;;;4.65;3.47;;;23.20;1.00;;;;;;5021416;28;20034;-87
2023/05/04 12:38:33;;;;;;;3.70;2.75;;;23.20;1.00;;;;;;5026201;28;20041;-86
2023/05/04 12:41:02;;;;;;;6.00;2.55;;;23.30;1.00;;;;;;5025937;28;20044;-89
2023/05/04 12:43:32;;;;;;;5.00;2.92;;;23.20;1.00;;;;;;5016753;28;20487;-85
2023/05/04 12:45:59;;;;;;;9.73;3.88;;;23.00;1.00;;;;;;5022624;28;20034;-82
2023/05/04 12:48:27;;;;;;;4.13;3.03;;;22.70;1.00;;;;;;5024918;28;20370;-87
2023/05/04 12:50:53;;;;;;;3.80;2.78;;;22.90;1.00;;;;;;5021931;28;20028;-86
2023/05/04 12:53:26;;;;;;;4.15;2.90;;;23.20;1.00;;;;;;5023414;28;20382;-86
2023/05/04 12:55:52;;;;;;;2.22;1.98;;;23.30;1.00;;;;;;5027261;28;20029;-87
2023/05/04 12:58:19;;;;;;;3.08;2.40;;;23.30;1.00;;;;;;5030380;28;20026;-91
2023/05/04 13:00:45;;;;;;;2.92;2.35;;;23.40;1.00;;;;;;5030526;28;20037;-85
2023/05/04 13:03:11;;;;;;;5.15;3.40;;;23.40;1.00;;;;;;5021467;28;20033;-88
2023/05/04 13:05:37;;;;;;;6.05;2.97;;;23.60;1.00;;;;;;5023268;28;20041;-83